createdAt,value
2023-07-18T00:00:26.558Z,22.95
2023-07-18T00:03:16.453Z,22.97
2023-07-18T00:05:44.925Z,22.98
2023-07-18T00:08:12.700Z,22.99
2023-07-18T00:10:40.875Z,23.00
2023-07-18T00:13:10.191Z,23.03
2023-07-18T00:15:38.338Z,23.05
2023-07-18T00:18:08.004Z,23.04
2023-07-18T00:20:35.874Z,23.03
2023-07-18T00:23:04.749Z,23.01
2023-07-18T00:25:34.785Z,22.98
2023-07-18T00:28:04.018Z,22.95
2023-07-18T00:30:31.715Z,22.92
2023-07-18T00:33:01.819Z,22.90
2023-07-18T00:35:29.890Z,22.86
2023-07-18T00:38:01.185Z,22.85
2023-07-18T00:40:29.584Z,22.81
2023-07-18T00:42:58.086Z,22.80
2023-07-18T00:45:27.593Z,22.80
2023-07-18T00:47:56.613Z,22.81
2023-07-18T00:50:24.647Z,22.82
2023-07-18T00:52:55.778Z,22.82
2023-07-18T00:55:24.328Z,22.83
2023-07-18T00:57:59.133Z,22.83
2023-07-18T01:00:28.791Z,22.83
2023-07-18T01:02:56.980Z,22.79
2023-07-18T01:05:25.488Z,22.76
2023-07-18T01:07:54.248Z,22.74
2023-07-18T01:10:28.631Z,22.70
2023-07-18T01:13:00.019Z,22.69
2023-07-18T01:15:34.049Z,22.63
2023-07-18T01:18:10.158Z,22.55
2023-07-18T01:20:41.465Z,22.51
2023-07-18T01:23:09.306Z,22.43
2023-07-18T01:25:38.405Z,22.43
2023-07-18T01:28:07.790Z,22.42
2023-07-18T01:30:35.906Z,22.39
2023-07-18T01:33:05.393Z,22.39
2023-07-18T01:35:33.819Z,22.33
2023-07-18T01:38:01.702Z,22.26
2023-07-18T01:40:32.283Z,22.19
2023-07-18T01:43:01.796Z,22.10
2023-07-18T01:45:29.880Z,22.07
2023-07-18T01:47:58.180Z,22.06
2023-07-18T01:50:26.721Z,22.06
2023-07-18T01:52:54.666Z,22.05
2023-07-18T01:55:23.856Z,22.03
2023-07-18T01:57:52.087Z,22.01
2023-07-18T02:00:21.412Z,21.98
2023-07-18T02:02:54.230Z,21.94
2023-07-18T02:05:25.694Z,21.91
2023-07-18T02:07:53.811Z,21.90
2023-07-18T02:10:22.526Z,21.92
2023-07-18T02:12:53.372Z,21.92
2023-07-18T02:15:22.861Z,21.87
2023-07-18T02:17:52.374Z,21.78
2023-07-18T02:20:20.784Z,21.73
2023-07-18T02:22:48.471Z,21.72
2023-07-18T02:25:18.087Z,21.70
2023-07-18T02:27:49.391Z,21.68
2023-07-18T02:30:17.666Z,21.66
2023-07-18T02:32:46.661Z,21.65
2023-07-18T02:35:18.837Z,21.64
2023-07-18T02:37:47.490Z,21.61
2023-07-18T02:40:18.110Z,21.61
2023-07-18T02:42:46.660Z,21.58
2023-07-18T02:45:15.015Z,21.55
2023-07-18T02:47:44.411Z,21.54
2023-07-18T02:50:13.124Z,21.50
2023-07-18T02:52:40.804Z,21.48
2023-07-18T02:55:09.981Z,21.46
2023-07-18T02:57:39.503Z,21.45
2023-07-18T03:00:21.550Z,21.41
2023-07-18T03:02:50.737Z,21.38
2023-07-18T03:05:23.132Z,21.36
2023-07-18T03:07:53.837Z,21.35
2023-07-18T03:10:25.063Z,21.38
2023-07-18T03:12:54.006Z,21.42
2023-07-18T03:15:22.390Z,21.46
2023-07-18T03:17:51.315Z,21.48
2023-07-18T03:20:20.911Z,21.50
2023-07-18T03:22:51.861Z,21.51
2023-07-18T03:25:22.661Z,21.52
2023-07-18T03:27:52.197Z,21.52
2023-07-18T03:30:20.162Z,21.52
2023-07-18T03:32:52.108Z,21.55
2023-07-18T03:35:20.259Z,21.61
2023-07-18T03:37:49.667Z,21.62
2023-07-18T03:40:22.403Z,21.63
2023-07-18T03:42:51.306Z,21.65
2023-07-18T03:45:18.960Z,21.69
2023-07-18T03:47:49.005Z,21.71
2023-07-18T03:50:18.701Z,21.77
2023-07-18T03:52:48.125Z,21.80
2023-07-18T03:55:15.841Z,21.86
2023-07-18T03:57:45.273Z,21.94
2023-07-18T04:00:15.463Z,22.00
2023-07-18T04:02:47.207Z,22.07
2023-07-18T04:05:18.335Z,22.11
2023-07-18T04:07:48.109Z,22.12
2023-07-18T04:10:15.942Z,22.12
2023-07-18T04:12:44.597Z,22.12
2023-07-18T04:15:15.503Z,22.10
2023-07-18T04:17:43.775Z,22.11
2023-07-18T04:20:14.153Z,22.12
2023-07-18T04:22:43.841Z,22.09
2023-07-18T04:25:11.978Z,22.07
2023-07-18T04:27:40.247Z,22.07
2023-07-18T04:30:11.032Z,22.05
2023-07-18T04:32:44.245Z,21.98
2023-07-18T04:35:12.233Z,21.95
2023-07-18T04:37:40.773Z,21.97
2023-07-18T04:40:09.338Z,22.02
2023-07-18T04:42:38.128Z,22.07
2023-07-18T04:45:07.372Z,22.12
2023-07-18T04:47:36.909Z,22.16
2023-07-18T04:50:05.760Z,22.21
2023-07-18T04:52:33.878Z,22.27
2023-07-18T04:55:03.204Z,22.31
2023-07-18T04:57:32.519Z,22.38
2023-07-18T05:00:06.312Z,22.43
2023-07-18T05:02:34.466Z,22.44
2023-07-18T05:05:03.169Z,22.48
2023-07-18T05:07:30.664Z,22.53
2023-07-18T05:09:58.362Z,22.58
2023-07-18T05:12:26.256Z,22.65
2023-07-18T05:14:54.075Z,22.67
2023-07-18T05:17:23.339Z,22.71
2023-07-18T05:19:51.102Z,22.76
2023-07-18T05:22:21.286Z,22.83
2023-07-18T05:24:49.189Z,22.93
2023-07-18T05:27:18.322Z,23.04
2023-07-18T05:29:47.078Z,23.12
2023-07-18T05:32:16.026Z,23.17
2023-07-18T05:34:44.433Z,23.19
2023-07-18T05:37:13.558Z,23.23
2023-07-18T05:39:42.072Z,23.29
2023-07-18T05:42:10.270Z,23.36
2023-07-18T05:44:37.942Z,23.39
2023-07-18T05:47:06.732Z,23.48
2023-07-18T05:49:35.329Z,23.60
2023-07-18T05:52:03.147Z,23.69
2023-07-18T05:54:31.803Z,23.75
2023-07-18T05:57:01.002Z,23.76
2023-07-18T05:59:31.638Z,23.86
2023-07-18T06:02:00.129Z,24.02
2023-07-18T06:04:28.611Z,24.10
2023-07-18T06:06:57.742Z,24.18
2023-07-18T06:09:26.489Z,24.25
2023-07-18T06:11:54.589Z,24.34
2023-07-18T06:14:27.561Z,24.44
2023-07-18T06:16:57.887Z,24.51
2023-07-18T06:19:27.499Z,24.62
2023-07-18T06:21:55.909Z,24.70
2023-07-18T06:24:25.293Z,24.77
2023-07-18T06:26:53.297Z,24.82
2023-07-18T06:29:21.994Z,24.83
2023-07-18T06:31:50.084Z,24.88
2023-07-18T06:34:18.712Z,24.97
2023-07-18T06:36:47.564Z,25.09
2023-07-18T06:39:17.498Z,25.23
2023-07-18T06:41:46.066Z,25.30
2023-07-18T06:44:15.471Z,25.38
2023-07-18T06:46:44.311Z,25.42
2023-07-18T06:49:14.348Z,25.53
2023-07-18T06:51:42.432Z,25.65
2023-07-18T06:54:11.225Z,25.71
2023-07-18T06:56:39.944Z,25.74
2023-07-18T06:59:13.803Z,25.80
2023-07-18T07:01:43.137Z,25.85
2023-07-18T07:04:11.611Z,25.92
2023-07-18T07:06:42.895Z,26.08
2023-07-18T07:09:15.143Z,26.25
2023-07-18T07:11:43.075Z,26.38
2023-07-18T07:14:12.379Z,26.42
2023-07-18T07:16:41.549Z,26.45
2023-07-18T07:19:09.851Z,26.58
2023-07-18T07:21:37.959Z,26.63
2023-07-18T07:24:07.247Z,26.69
2023-07-18T07:26:38.587Z,26.82
2023-07-18T07:29:07.824Z,26.87
2023-07-18T07:31:38.252Z,26.97
2023-07-18T07:34:07.326Z,27.09
2023-07-18T07:36:36.713Z,27.21
2023-07-18T07:39:04.907Z,27.30
2023-07-18T07:41:32.472Z,27.37
2023-07-18T07:44:01.817Z,27.43
2023-07-18T07:46:30.320Z,27.45
2023-07-18T07:48:59.378Z,27.57
2023-07-18T07:51:27.550Z,27.70
2023-07-18T07:53:57.244Z,27.81
2023-07-18T07:56:25.265Z,27.88
2023-07-18T07:59:05.592Z,27.97
2023-07-18T08:01:39.746Z,28.14
2023-07-18T08:04:12.489Z,28.28
2023-07-18T08:06:41.640Z,28.44
2023-07-18T08:09:09.516Z,28.43
2023-07-18T08:11:39.350Z,28.53
2023-07-18T08:14:08.370Z,28.62
2023-07-18T08:16:38.112Z,28.82
2023-07-18T08:19:12.578Z,29.00
2023-07-18T08:21:40.087Z,29.08
2023-07-18T08:24:08.206Z,29.15
2023-07-18T08:26:36.061Z,29.38
2023-07-18T08:29:09.868Z,29.58
2023-07-18T08:31:38.388Z,29.78
2023-07-18T08:34:08.012Z,29.89
2023-07-18T08:36:36.787Z,30.03
2023-07-18T08:39:11.832Z,30.10
2023-07-18T08:41:47.181Z,30.30
2023-07-18T08:44:17.262Z,30.43
2023-07-18T08:46:47.600Z,30.61
2023-07-18T08:49:18.560Z,30.61
2023-07-18T08:51:49.186Z,30.68
2023-07-18T08:54:17.908Z,30.66
2023-07-18T08:56:45.464Z,30.60
2023-07-18T08:59:13.964Z,30.61
2023-07-18T09:01:49.748Z,30.69
2023-07-18T09:04:20.774Z,30.90
2023-07-18T09:06:50.744Z,31.04
2023-07-18T09:09:21.861Z,31.04
2023-07-18T09:12:16.406Z,31.06
2023-07-18T09:14:44.363Z,31.19
2023-07-18T09:17:12.909Z,31.32
2023-07-18T09:19:50.015Z,31.40
2023-07-18T09:22:18.969Z,31.40
2023-07-18T09:24:49.309Z,31.37
2023-07-18T09:27:20.881Z,31.52
2023-07-18T09:29:50.293Z,31.64
2023-07-18T09:32:24.869Z,31.77
2023-07-18T09:34:55.493Z,31.86
2023-07-18T09:37:24.069Z,31.97
2023-07-18T09:39:53.692Z,32.13
2023-07-18T09:42:23.983Z,32.23
2023-07-18T09:44:54.063Z,32.31
2023-07-18T09:47:23.444Z,32.38
2023-07-18T09:49:52.090Z,32.52
2023-07-18T09:52:26.644Z,32.71
2023-07-18T09:54:58.391Z,32.89
2023-07-18T09:57:27.190Z,33.08
2023-07-18T09:59:58.926Z,33.35
2023-07-18T10:02:27.879Z,33.62
2023-07-18T10:04:56.998Z,33.59
2023-07-18T10:07:26.347Z,33.61
2023-07-18T10:09:55.398Z,33.74
2023-07-18T10:12:24.274Z,33.61
2023-07-18T10:14:58.256Z,33.68
2023-07-18T10:17:32.514Z,33.95
2023-07-18T10:20:20.922Z,34.24
2023-07-18T10:22:55.635Z,34.45
2023-07-18T10:25:30.428Z,34.53
2023-07-18T10:28:01.066Z,34.64
2023-07-18T10:30:42.569Z,34.73
2023-07-18T10:33:10.751Z,34.70
2023-07-18T10:35:46.318Z,34.56
2023-07-18T10:38:15.215Z,34.53
2023-07-18T10:40:45.719Z,34.31
2023-07-18T10:43:18.986Z,34.13
2023-07-18T10:45:47.315Z,34.14
2023-07-18T10:48:21.329Z,34.41
2023-07-18T10:50:49.617Z,34.64
2023-07-18T10:53:20.495Z,34.86
2023-07-18T10:55:49.827Z,34.78
2023-07-18T10:58:21.387Z,34.67
2023-07-18T11:00:50.964Z,34.87
2023-07-18T11:03:28.169Z,35.16
2023-07-18T11:05:56.349Z,35.28
2023-07-18T11:08:27.009Z,35.15
2023-07-18T11:11:05.231Z,35.29
2023-07-18T11:13:38.154Z,35.36
2023-07-18T11:16:17.415Z,35.55
2023-07-18T11:18:46.969Z,35.52
2023-07-18T11:21:19.781Z,35.19
2023-07-18T11:23:48.900Z,35.20
2023-07-18T11:26:19.969Z,35.13
2023-07-18T11:28:51.836Z,34.94
2023-07-18T11:34:02.861Z,34.90
2023-07-18T11:36:33.871Z,35.13
2023-07-18T11:39:02.266Z,35.50
2023-07-18T11:41:33.378Z,35.84
2023-07-18T11:44:07.064Z,36.01
2023-07-18T11:46:48.043Z,36.16
2023-07-18T11:49:17.199Z,36.33
2023-07-18T11:51:44.784Z,36.50
2023-07-18T11:54:13.812Z,36.72
2023-07-18T11:56:41.833Z,36.92
2023-07-18T11:59:10.058Z,37.10
2023-07-18T12:01:39.009Z,37.22
2023-07-18T12:04:13.409Z,37.04
2023-07-18T12:06:41.992Z,37.10
2023-07-18T12:09:10.235Z,37.22
2023-07-18T12:11:39.668Z,37.41
2023-07-18T12:14:09.907Z,37.42
2023-07-18T12:16:39.691Z,37.42
2023-07-18T12:19:07.269Z,37.52
2023-07-18T12:21:37.403Z,37.30
2023-07-18T12:24:05.394Z,37.38
2023-07-18T12:26:33.568Z,37.59
2023-07-18T12:29:01.528Z,37.66
2023-07-18T12:31:33.972Z,37.97
2023-07-18T12:34:03.551Z,38.08
2023-07-18T12:36:31.174Z,37.97
2023-07-18T12:38:59.794Z,38.04
2023-07-18T12:41:28.697Z,38.15
2023-07-18T12:43:56.774Z,38.20
2023-07-18T12:46:27.744Z,38.11
2023-07-18T12:49:03.721Z,38.14
2023-07-18T12:51:32.160Z,38.07
2023-07-18T12:54:01.580Z,38.17
2023-07-18T12:56:34.505Z,38.18
2023-07-18T12:59:03.045Z,37.94
2023-07-18T13:01:31.244Z,37.94
2023-07-18T13:04:00.424Z,38.05
2023-07-18T13:06:28.907Z,38.40
2023-07-18T13:08:57.586Z,38.58
2023-07-18T13:11:25.548Z,38.50
2023-07-18T13:13:53.781Z,38.30
2023-07-18T13:16:22.050Z,37.83
2023-07-18T13:18:51.196Z,37.70
2023-07-18T13:21:19.280Z,37.74
2023-07-18T13:23:47.115Z,38.00
2023-07-18T13:26:19.570Z,38.05
2023-07-18T13:28:48.765Z,37.86
2023-07-18T13:31:17.452Z,37.84
2023-07-18T13:33:46.225Z,37.78
2023-07-18T13:36:15.233Z,37.94
2023-07-18T13:38:43.091Z,38.24
2023-07-18T13:41:11.964Z,38.48
2023-07-18T13:43:40.510Z,38.69
2023-07-18T13:46:09.088Z,38.54
2023-07-18T13:48:38.900Z,38.63
2023-07-18T13:51:06.661Z,38.86
2023-07-18T13:53:35.121Z,38.99
2023-07-18T13:56:03.665Z,38.82
2023-07-18T13:58:32.072Z,38.82
2023-07-18T14:01:00.320Z,38.91
2023-07-18T14:03:34.259Z,38.98
2023-07-18T14:06:04.854Z,39.04
2023-07-18T14:08:33.889Z,38.96
2023-07-18T14:11:03.455Z,38.97
2023-07-18T14:13:32.128Z,38.74
2023-07-18T14:16:00.174Z,38.28
2023-07-18T14:18:28.627Z,38.20
2023-07-18T14:20:57.076Z,38.18
2023-07-18T14:23:25.280Z,37.97
2023-07-18T14:25:53.594Z,38.04
2023-07-18T14:28:21.835Z,38.33
2023-07-18T14:30:49.892Z,38.62
2023-07-18T14:33:19.235Z,38.92
2023-07-18T14:35:47.193Z,39.24
2023-07-18T14:38:15.523Z,39.45
2023-07-18T14:40:44.122Z,39.57
2023-07-18T14:43:12.557Z,39.61
2023-07-18T14:45:40.891Z,39.59
2023-07-18T14:48:09.468Z,39.37
2023-07-18T14:50:38.608Z,39.24
2023-07-18T14:53:08.180Z,39.18
2023-07-18T14:55:36.995Z,39.14
2023-07-18T14:58:04.936Z,39.20
2023-07-18T15:00:33.862Z,39.04
2023-07-18T15:03:02.612Z,38.86
2023-07-18T15:05:31.456Z,38.72
2023-07-18T15:07:59.784Z,38.47
2023-07-18T15:10:27.704Z,38.35
2023-07-18T15:12:56.174Z,38.36
2023-07-18T15:15:23.744Z,38.20
2023-07-18T15:17:52.205Z,37.95
2023-07-18T15:20:20.393Z,37.84
2023-07-18T15:22:52.428Z,37.92
2023-07-18T15:25:20.231Z,38.11
2023-07-18T15:27:48.724Z,38.21
2023-07-18T15:30:16.820Z,38.22
2023-07-18T15:32:47.315Z,38.10
2023-07-18T15:35:15.492Z,37.93
2023-07-18T15:37:43.355Z,37.84
2023-07-18T15:40:12.836Z,37.87
2023-07-18T15:42:42.121Z,37.81
2023-07-18T15:45:10.666Z,37.62
2023-07-18T15:47:39.092Z,37.38
2023-07-18T15:50:10.528Z,37.09
2023-07-18T15:52:38.349Z,36.80
2023-07-18T15:55:06.837Z,36.71
2023-07-18T15:57:34.615Z,36.31
2023-07-18T16:00:04.271Z,36.17
2023-07-18T16:02:36.275Z,36.18
2023-07-18T16:05:08.674Z,36.24
2023-07-18T16:07:36.816Z,36.12
2023-07-18T16:10:05.135Z,35.87
2023-07-18T16:12:33.263Z,35.53
2023-07-18T16:15:01.070Z,35.14
2023-07-18T16:17:30.032Z,34.91
2023-07-18T16:19:58.306Z,34.80
2023-07-18T16:22:26.182Z,34.66
2023-07-18T16:24:54.196Z,34.59
2023-07-18T16:27:22.018Z,34.48
2023-07-18T16:29:50.204Z,34.39
2023-07-18T16:32:17.994Z,34.32
2023-07-18T16:34:46.865Z,34.22
2023-07-18T16:37:14.583Z,34.01
2023-07-18T16:39:42.815Z,33.82
2023-07-18T16:42:23.451Z,33.74
2023-07-18T16:44:53.780Z,33.57
2023-07-18T16:47:22.765Z,33.40
2023-07-18T16:49:51.660Z,33.25
2023-07-18T16:52:20.766Z,33.11
2023-07-18T16:54:48.675Z,32.95
2023-07-18T16:57:17.432Z,32.73
2023-07-18T16:59:45.061Z,32.51
2023-07-18T17:02:13.190Z,32.35
2023-07-18T17:04:41.053Z,32.23
2023-07-18T17:07:08.575Z,32.02
2023-07-18T17:09:36.911Z,31.93
2023-07-18T17:12:06.026Z,31.85
2023-07-18T17:14:34.053Z,31.74
2023-07-18T17:17:01.936Z,31.68
2023-07-18T17:19:29.833Z,31.64
2023-07-18T17:21:58.290Z,31.57
2023-07-18T17:24:26.810Z,31.47
2023-07-18T17:26:55.222Z,31.39
2023-07-18T17:29:23.232Z,31.34
2023-07-18T17:31:51.476Z,31.29
2023-07-18T17:34:19.202Z,31.25
2023-07-18T17:36:53.319Z,31.18
2023-07-18T17:39:24.508Z,31.09
2023-07-18T17:41:52.369Z,30.96
2023-07-18T17:44:20.797Z,30.88
2023-07-18T17:46:49.423Z,30.80
2023-07-18T17:49:17.274Z,30.71
2023-07-18T17:51:45.263Z,30.60
2023-07-18T17:54:13.381Z,30.45
2023-07-18T17:56:41.347Z,30.34
2023-07-18T17:59:09.315Z,30.24
2023-07-18T18:01:37.840Z,30.12
2023-07-18T18:04:07.581Z,29.99
2023-07-18T18:06:35.578Z,29.86
2023-07-18T18:09:06.152Z,29.70
2023-07-18T18:11:35.804Z,29.58
2023-07-18T18:14:04.144Z,29.45
2023-07-18T18:16:32.661Z,29.29
2023-07-18T18:19:00.559Z,29.12
2023-07-18T18:21:28.000Z,28.97
2023-07-18T18:23:55.984Z,28.79
2023-07-18T18:26:24.234Z,28.62
2023-07-18T18:28:53.848Z,28.45
2023-07-18T18:31:21.816Z,28.33
2023-07-18T18:33:50.004Z,28.19
2023-07-18T18:36:25.022Z,28.04
2023-07-18T18:38:52.944Z,27.90
2023-07-18T18:41:21.383Z,27.74
2023-07-18T18:43:50.253Z,27.57
2023-07-18T18:46:18.054Z,27.47
2023-07-18T18:48:46.049Z,27.35
2023-07-18T18:51:14.507Z,27.19
2023-07-18T18:53:42.846Z,27.01
2023-07-18T18:56:12.282Z,26.86
2023-07-18T18:58:40.676Z,26.71
2023-07-18T19:01:08.618Z,26.46
2023-07-18T19:03:36.504Z,26.33
2023-07-18T19:06:04.292Z,26.15
2023-07-18T19:08:32.229Z,26.02
2023-07-18T19:11:22.160Z,25.89
2023-07-18T19:13:50.727Z,25.66
2023-07-18T19:16:32.862Z,25.48
2023-07-18T19:19:08.721Z,25.38
2023-07-18T19:21:36.687Z,25.30
2023-07-18T19:24:05.057Z,25.23
2023-07-18T19:26:33.424Z,25.14
2023-07-18T19:29:02.594Z,25.08
2023-07-18T19:31:30.120Z,24.98
2023-07-18T19:33:58.075Z,24.89
2023-07-18T19:36:26.568Z,24.71
2023-07-18T19:38:55.615Z,24.58
2023-07-18T19:41:25.229Z,24.53
2023-07-18T19:43:52.966Z,24.47
2023-07-18T19:46:23.812Z,24.38
2023-07-18T19:48:51.831Z,24.34
2023-07-18T19:51:20.028Z,24.30
2023-07-18T19:53:48.247Z,24.17
2023-07-18T19:56:17.288Z,24.08
2023-07-18T19:58:45.975Z,24.00
2023-07-18T20:01:15.739Z,23.94
2023-07-18T20:03:57.897Z,23.88
2023-07-18T20:06:28.745Z,23.74
2023-07-18T20:08:57.313Z,23.65
2023-07-18T20:11:25.155Z,23.49
2023-07-18T20:13:53.574Z,23.33
2023-07-18T20:16:22.987Z,23.22
2023-07-18T20:18:55.482Z,23.16
2023-07-18T20:21:27.407Z,23.14
2023-07-18T20:23:56.623Z,23.09
2023-07-18T20:26:26.347Z,23.07
2023-07-18T20:28:54.421Z,23.05
2023-07-18T20:31:22.700Z,23.05
2023-07-18T20:33:50.801Z,23.02
2023-07-18T20:36:19.015Z,22.97
2023-07-18T20:38:48.039Z,22.91
2023-07-18T20:41:16.289Z,22.81
2023-07-18T20:43:48.495Z,22.76
2023-07-18T20:46:17.577Z,22.67
2023-07-18T20:48:45.507Z,22.62
2023-07-18T20:51:13.312Z,22.56
2023-07-18T20:53:41.262Z,22.50
2023-07-18T20:56:09.144Z,22.46
2023-07-18T20:58:37.446Z,22.45
2023-07-18T21:01:05.202Z,22.45
2023-07-18T21:03:34.112Z,22.46
2023-07-18T21:06:03.468Z,22.47
2023-07-18T21:08:31.730Z,22.51
2023-07-18T21:11:00.157Z,22.53
2023-07-18T21:13:28.060Z,22.54
2023-07-18T21:15:56.119Z,22.52
